createdAt,value
2023-03-25T00:00:53.370Z,95167.00
2023-03-25T00:06:21.757Z,95170.00
2023-03-25T00:11:53.094Z,95159.00
2023-03-25T00:17:23.134Z,95155.00
2023-03-25T00:22:51.457Z,95147.00
2023-03-25T00:28:19.361Z,95144.00
2023-03-25T00:33:47.129Z,95150.00
2023-03-25T00:39:14.983Z,95150.00
2023-03-25T00:44:43.143Z,95140.00
2023-03-25T00:50:14.925Z,95130.00
2023-03-25T00:55:43.718Z,95124.00
2023-03-25T01:01:23.544Z,95137.00
2023-03-25T01:06:52.173Z,95130.00
2023-03-25T01:12:20.331Z,95127.00
2023-03-25T01:17:48.234Z,95122.00
2023-03-25T01:23:17.429Z,95125.00
2023-03-25T01:28:46.084Z,95126.00
2023-03-25T01:34:15.502Z,95120.00
2023-03-25T01:39:43.420Z,95117.00
2023-03-25T01:45:32.875Z,95117.00
2023-03-25T01:51:10.441Z,95107.00
2023-03-25T01:56:42.368Z,95114.00
2023-03-25T02:02:17.820Z,95109.00
2023-03-25T02:07:51.429Z,95100.00
2023-03-25T02:13:21.009Z,95093.00
2023-03-25T02:19:33.165Z,95093.00
2023-03-25T02:25:55.079Z,95080.00
2023-03-25T02:31:49.060Z,95067.00
2023-03-25T02:37:47.149Z,95084.00
2023-03-25T02:43:33.732Z,95095.00
2023-03-25T02:49:09.699Z,95105.00
2023-03-25T02:54:43.764Z,95103.00
2023-03-25T03:00:15.916Z,95107.00
2023-03-25T03:05:50.932Z,95113.00
2023-03-25T03:11:36.600Z,95097.00
2023-03-25T03:17:46.294Z,95095.00
2023-03-25T03:23:46.261Z,95081.00
2023-03-25T03:29:21.066Z,95079.00
2023-03-25T03:35:14.241Z,95094.00
2023-03-25T03:40:50.750Z,95086.00
2023-03-25T03:46:32.729Z,95104.00
2023-03-25T03:52:14.871Z,95110.00
2023-03-25T03:57:59.985Z,95110.00
2023-03-25T04:03:38.859Z,95119.00
2023-03-25T04:09:27.453Z,95120.00
2023-03-25T04:14:56.569Z,95123.00
2023-03-25T04:20:26.206Z,95119.00
2023-03-25T04:25:54.163Z,95132.00
2023-03-25T04:31:26.167Z,95131.00
2023-03-25T04:36:57.295Z,95132.00
2023-03-25T04:42:33.235Z,95132.00
2023-03-25T04:48:06.085Z,95159.00
2023-03-25T04:53:40.162Z,95137.00
2023-03-25T04:59:11.993Z,95147.00
2023-03-25T05:04:47.896Z,95139.00
2023-03-25T05:10:22.242Z,95127.00
2023-03-25T05:15:50.641Z,95123.00
2023-03-25T05:21:19.013Z,95138.00
2023-03-25T05:26:46.887Z,95124.00
2023-03-25T05:32:17.763Z,95131.00
2023-03-25T05:37:46.663Z,95145.00
2023-03-25T05:43:16.183Z,95155.00
2023-03-25T05:48:46.180Z,95167.00
2023-03-25T05:54:18.693Z,95162.00
2023-03-25T05:59:49.030Z,95163.00
2023-03-25T06:05:17.578Z,95174.00
2023-03-25T06:10:46.092Z,95169.00
2023-03-25T06:16:13.819Z,95190.00
2023-03-25T06:21:44.347Z,95194.00
2023-03-25T06:27:20.218Z,95233.00
2023-03-25T06:32:53.802Z,95220.00
2023-03-25T06:38:22.036Z,95213.00
2023-03-25T06:44:06.957Z,95215.00
2023-03-25T06:49:46.708Z,95243.00
2023-03-25T06:55:14.787Z,95240.00
2023-03-25T07:00:43.659Z,95245.00
2023-03-25T07:06:21.261Z,95257.00
2023-03-25T07:11:52.324Z,95253.00
2023-03-25T07:17:22.804Z,95243.00
2023-03-25T07:22:51.049Z,95253.00
2023-03-25T07:28:19.787Z,95265.00
2023-03-25T07:33:53.842Z,95285.00
2023-03-25T07:39:22.812Z,95283.00
2023-03-25T07:44:51.074Z,95291.00
2023-03-25T07:50:24.940Z,95285.00
2023-03-25T07:55:53.969Z,95293.00
2023-03-25T08:01:22.325Z,95285.00
2023-03-25T08:06:53.356Z,95297.00
2023-03-25T08:12:21.468Z,95295.00
2023-03-25T08:17:52.207Z,95292.00
2023-03-25T08:23:22.447Z,95304.00
2023-03-25T08:28:50.310Z,95298.00
2023-03-25T08:34:21.247Z,95294.00
2023-03-25T08:39:58.847Z,95289.00
2023-03-25T08:45:26.885Z,95279.00
2023-03-25T08:50:57.342Z,95291.00
2023-03-25T08:56:26.180Z,95293.00
2023-03-25T09:01:56.047Z,95289.00
2023-03-25T09:07:24.699Z,95289.00
2023-03-25T09:12:53.639Z,95279.00
2023-03-25T09:18:23.719Z,95274.00
2023-03-25T09:23:51.822Z,95289.00
2023-03-25T09:29:20.886Z,95265.00
2023-03-25T09:34:49.429Z,95270.00
2023-03-25T09:40:23.528Z,95276.00
2023-03-25T09:45:52.849Z,95266.00
2023-03-25T09:51:29.974Z,95270.00
2023-03-25T09:57:06.492Z,95255.00
2023-03-25T10:02:42.179Z,95239.00
2023-03-25T10:08:49.221Z,95250.00
2023-03-25T10:14:29.105Z,95242.00
2023-03-25T10:20:31.142Z,95247.00
2023-03-25T10:26:14.188Z,95216.00
2023-03-25T10:31:53.159Z,95221.00
2023-03-25T10:37:32.708Z,95210.00
2023-03-25T10:43:19.276Z,95195.00
2023-03-25T10:48:48.688Z,95222.00
2023-03-25T10:54:18.071Z,95219.00
2023-03-25T11:00:20.941Z,95211.00
2023-03-25T11:05:49.537Z,95183.00
2023-03-25T11:11:19.272Z,95203.00
2023-03-25T11:16:57.260Z,95186.00
2023-03-25T11:22:32.178Z,95168.00
2023-03-25T11:28:06.196Z,95173.00
2023-03-25T11:33:34.362Z,95159.00
2023-03-25T11:39:17.609Z,95150.00
2023-03-25T11:44:55.565Z,95148.00
2023-03-25T11:50:29.546Z,95136.00
2023-03-25T11:56:11.711Z,95133.00
2023-03-25T12:01:50.654Z,95144.00
2023-03-25T12:07:21.688Z,95124.00
2023-03-25T12:13:17.356Z,95125.00
2023-03-25T12:19:22.464Z,95117.00
2023-03-25T12:25:18.226Z,95113.00
2023-03-25T12:31:11.520Z,95136.00
2023-03-25T12:36:55.362Z,95093.00
2023-03-25T12:42:30.554Z,95110.00
2023-03-25T12:48:28.665Z,95134.00
2023-03-25T12:54:34.837Z,95119.00
2023-03-25T13:00:36.418Z,95104.00
2023-03-25T13:06:30.530Z,95108.00
2023-03-25T13:12:07.370Z,95101.00
2023-03-25T13:17:46.495Z,95122.00
2023-03-25T13:23:21.627Z,95117.00
2023-03-25T13:28:58.296Z,95117.00
2023-03-25T13:34:44.008Z,95138.00
2023-03-25T13:40:22.505Z,95122.00
2023-03-25T13:46:09.682Z,95134.00
2023-03-25T13:51:37.845Z,95136.00
2023-03-25T13:57:35.350Z,95124.00
2023-03-25T14:03:24.350Z,95135.00
2023-03-25T14:09:38.342Z,95067.00
2023-03-25T14:15:20.999Z,95093.00
2023-03-25T14:20:50.602Z,95134.00
2023-03-25T14:26:20.011Z,95080.00
2023-03-25T14:32:26.897Z,95071.00
2023-03-25T14:37:54.810Z,95061.00
2023-03-25T14:43:53.313Z,95155.00
2023-03-25T14:49:23.271Z,95073.00
2023-03-25T14:54:56.746Z,95065.00
2023-03-25T15:00:31.563Z,95061.00
2023-03-25T15:06:01.170Z,95096.00
2023-03-25T15:11:39.366Z,95119.00
2023-03-25T15:17:34.613Z,95102.00
2023-03-25T15:23:33.142Z,95110.00
2023-03-25T15:29:55.778Z,95111.00
2023-03-25T15:35:52.669Z,95105.00
2023-03-25T15:41:23.233Z,95102.00
2023-03-25T15:47:48.311Z,95095.00
2023-03-25T15:53:53.572Z,95144.00
2023-03-25T15:59:45.112Z,95128.00
2023-03-25T16:05:16.456Z,95104.00
2023-03-25T16:10:46.453Z,95072.00
2023-03-25T16:16:17.661Z,95095.00
2023-03-25T16:21:49.842Z,95100.00
2023-03-25T16:27:31.961Z,95127.00
2023-03-25T16:33:10.481Z,95106.00
2023-03-25T16:38:38.443Z,95120.00
2023-03-25T16:44:07.235Z,95138.00
2023-03-25T16:49:37.474Z,95132.00
2023-03-25T16:55:14.761Z,95149.00
2023-03-25T17:00:43.659Z,95153.00
2023-03-25T17:06:35.302Z,95159.00
2023-03-25T17:12:10.127Z,95163.00
2023-03-25T17:18:00.046Z,95171.00
2023-03-25T17:23:46.446Z,95163.00
2023-03-25T17:29:16.015Z,95147.00
2023-03-25T17:34:45.627Z,95168.00
2023-03-25T17:40:25.969Z,95161.00
2023-03-25T17:45:53.956Z,95173.00
2023-03-25T17:51:22.480Z,95181.00
2023-03-25T17:56:50.641Z,95181.00
2023-03-25T18:02:21.429Z,95185.00
2023-03-25T18:07:51.805Z,95190.00
2023-03-25T18:13:22.680Z,95192.00
2023-03-25T18:18:53.740Z,95209.00
2023-03-25T18:24:28.971Z,95217.00
2023-03-25T18:29:59.549Z,95221.00
2023-03-25T18:35:27.539Z,95212.00
2023-03-25T18:40:57.332Z,95242.00
2023-03-25T18:46:26.861Z,95227.00
2023-03-25T18:51:59.295Z,95234.00
2023-03-25T18:57:27.381Z,95229.00
2023-03-25T19:02:56.782Z,95225.00
2023-03-25T19:08:26.590Z,95218.00
2023-03-25T19:13:56.150Z,95241.00
2023-03-25T19:19:33.286Z,95222.00
2023-03-25T19:25:02.289Z,95231.00
2023-03-25T19:30:31.814Z,95228.00
2023-03-25T19:36:04.319Z,95231.00
2023-03-25T19:41:35.298Z,95229.00
2023-03-25T19:47:04.028Z,95229.00
2023-03-25T19:52:33.916Z,95230.00
2023-03-25T19:58:02.815Z,95233.00
2023-03-25T20:03:33.009Z,95244.00
2023-03-25T20:09:01.502Z,95238.00
2023-03-25T20:14:29.462Z,95239.00
2023-03-25T20:19:57.892Z,95241.00
2023-03-25T20:25:25.948Z,95248.00
2023-03-25T20:30:55.523Z,95239.00
2023-03-25T20:36:23.476Z,95235.00
2023-03-25T20:41:52.023Z,95239.00
2023-03-25T20:47:20.033Z,95255.00
2023-03-25T20:52:49.051Z,95258.00
2023-03-25T20:58:18.217Z,95256.00
2023-03-25T21:03:51.930Z,95260.00
2023-03-25T21:09:20.123Z,95255.00
2023-03-25T21:14:48.487Z,95258.00
2023-03-25T21:20:16.899Z,95254.00
2023-03-25T21:26:00.899Z,95252.00
2023-03-25T21:31:38.537Z,95251.00
2023-03-25T21:37:08.590Z,95249.00
2023-03-25T21:42:46.729Z,95243.00
2023-03-25T21:48:23.769Z,95230.00
2023-03-25T21:53:54.602Z,95222.00
2023-03-25T21:59:29.027Z,95219.00
2023-03-25T22:05:02.239Z,95220.00
2023-03-25T22:10:33.821Z,95220.00
2023-03-25T22:16:02.506Z,95209.00
2023-03-25T22:21:37.787Z,95204.00
2023-03-25T22:27:10.236Z,95210.00
2023-03-25T22:32:41.337Z,95213.00
2023-03-25T22:38:16.909Z,95217.00
2023-03-25T22:43:49.409Z,95216.00
2023-03-25T22:49:22.914Z,95238.00
2023-03-25T22:54:53.934Z,95225.00
2023-03-25T23:00:33.167Z,95231.00
2023-03-25T23:06:08.286Z,95228.00
2023-03-25T23:11:52.011Z,95224.00
2023-03-25T23:17:31.295Z,95203.00
2023-03-25T23:23:06.602Z,95209.00
2023-03-25T23:28:39.629Z,95204.00
2023-03-25T23:34:18.902Z,95220.00
2023-03-25T23:39:46.721Z,95212.00
2023-03-25T23:45:15.803Z,95214.00
2023-03-25T23:50:47.312Z,95225.00
2023-03-25T23:56:20.048Z,95229.00
